sensor_id;sensor_type;location;lat;lon;timestamp;pressure;altitude;pressure_sealevel;temperature;humidity
24302;BME280;12421;49.732;20.078;2023-08-06T00:02:39;95505.55;;;19.97;99.09
24302;BME280;12421;49.732;20.078;2023-08-06T00:12:43;95496.86;;;19.99;97.36
24302;BME280;12421;49.732;20.078;2023-08-06T00:22:47;95513.39;;;19.92;96.78
24302;BME280;12421;49.732;20.078;2023-08-06T00:32:50;95488.84;;;19.94;97.25
24302;BME280;12421;49.732;20.078;2023-08-06T00:42:53;95341.48;;;19.90;95.85
24302;BME280;12421;49.732;20.078;2023-08-06T00:52:57;95434.71;;;19.52;95.67
24302;BME280;12421;49.732;20.078;2023-08-06T01:14:54;95430.79;;;19.15;97.68
24302;BME280;12421;49.732;20.078;2023-08-06T01:25:03;95408.19;;;19.18;99.02
24302;BME280;12421;49.732;20.078;2023-08-06T01:35:27;95370.49;;;19.20;98.18
24302;BME280;12421;49.732;20.078;2023-08-06T01:45:56;95349.09;;;19.06;97.84
24302;BME280;12421;49.732;20.078;2023-08-06T01:56:02;95331.53;;;18.90;98.61
24302;BME280;12421;49.732;20.078;2023-08-06T02:06:14;95335.35;;;19.14;97.55
24302;BME280;12421;49.732;20.078;2023-08-06T02:16:41;95321.64;;;19.11;95.49
24302;BME280;12421;49.732;20.078;2023-08-06T02:26:52;95314.05;;;19.21;95.08
24302;BME280;12421;49.732;20.078;2023-08-06T02:37:01;95311.56;;;19.18;93.35
24302;BME280;12421;49.732;20.078;2023-08-06T02:47:28;95291.77;;;19.27;93.11
24302;BME280;12421;49.732;20.078;2023-08-06T02:57:38;95286.77;;;19.12;92.45
24302;BME280;12421;49.732;20.078;2023-08-06T03:07:50;95271.70;;;18.94;93.15
24302;BME280;12421;49.732;20.078;2023-08-06T03:18:46;95269.41;;;18.86;93.40
24302;BME280;12421;49.732;20.078;2023-08-06T03:29:16;95254.42;;;18.89;93.43
24302;BME280;12421;49.732;20.078;2023-08-06T03:39:30;95240.10;;;19.02;93.94
24302;BME280;12421;49.732;20.078;2023-08-06T03:49:45;95227.87;;;19.22;94.36
24302;BME280;12421;49.732;20.078;2023-08-06T04:00:06;95220.55;;;19.54;93.73
24302;BME280;12421;49.732;20.078;2023-08-06T04:10:31;95217.35;;;19.80;93.33
24302;BME280;12421;49.732;20.078;2023-08-06T04:21:07;95219.35;;;19.94;92.65
24302;BME280;12421;49.732;20.078;2023-08-06T04:31:15;95215.07;;;20.18;92.56
24302;BME280;12421;49.732;20.078;2023-08-06T04:41:30;95194.28;;;20.40;92.25
24302;BME280;12421;49.732;20.078;2023-08-06T04:51:37;95182.04;;;20.65;91.01
24302;BME280;12421;49.732;20.078;2023-08-06T05:02:06;95178.77;;;20.65;90.25
24302;BME280;12421;49.732;20.078;2023-08-06T05:12:31;95162.16;;;21.08;91.13
24302;BME280;12421;49.732;20.078;2023-08-06T05:23:08;95154.33;;;21.40;89.52
24302;BME280;12421;49.732;20.078;2023-08-06T05:33:34;95136.09;;;21.62;88.62
24302;BME280;12421;49.732;20.078;2023-08-06T05:43:39;95113.30;;;21.84;87.50
24302;BME280;12421;49.732;20.078;2023-08-06T05:54:14;95112.80;;;22.01;86.25
24302;BME280;12421;49.732;20.078;2023-08-06T06:04:28;95096.52;;;21.84;85.86
24302;BME280;12421;49.732;20.078;2023-08-06T06:14:44;95075.09;;;21.93;87.02
24302;BME280;12421;49.732;20.078;2023-08-06T06:25:10;95060.59;;;21.93;86.07
24302;BME280;12421;49.732;20.078;2023-08-06T06:45:59;95056.70;;;21.80;85.22
24302;BME280;12421;49.732;20.078;2023-08-06T06:56:36;95096.87;;;21.65;85.96
24302;BME280;12421;49.732;20.078;2023-08-06T07:07:10;95076.48;;;21.36;86.44
24302;BME280;12421;49.732;20.078;2023-08-06T07:17:27;95066.20;;;21.44;88.09
24302;BME280;12421;49.732;20.078;2023-08-06T07:27:32;95059.99;;;21.64;86.79
24302;BME280;12421;49.732;20.078;2023-08-06T07:37:36;95065.79;;;21.86;86.91
24302;BME280;12421;49.732;20.078;2023-08-06T07:47:47;95069.91;;;22.01;86.90
24302;BME280;12421;49.732;20.078;2023-08-06T07:58:09;95070.55;;;22.19;86.70
24302;BME280;12421;49.732;20.078;2023-08-06T08:08:13;95078.80;;;22.41;86.28
24302;BME280;12421;49.732;20.078;2023-08-06T08:18:37;95090.61;;;22.58;85.12
24302;BME280;12421;49.732;20.078;2023-08-06T08:28:46;95067.99;;;22.62;84.26
24302;BME280;12421;49.732;20.078;2023-08-06T08:38:50;95060.31;;;22.56;83.75
24302;BME280;12421;49.732;20.078;2023-08-06T08:49:06;95041.48;;;22.57;84.37
24302;BME280;12421;49.732;20.078;2023-08-06T08:59:22;95038.61;;;22.67;83.70
24302;BME280;12421;49.732;20.078;2023-08-06T09:09:49;95033.54;;;22.91;82.17
24302;BME280;12421;49.732;20.078;2023-08-06T09:19:53;95049.73;;;22.90;81.00
24302;BME280;12421;49.732;20.078;2023-08-06T09:30:41;95054.53;;;22.63;81.32
24302;BME280;12421;49.732;20.078;2023-08-06T09:41:09;95042.95;;;22.38;82.33
24302;BME280;12421;49.732;20.078;2023-08-06T09:51:42;95048.46;;;22.42;82.30
24302;BME280;12421;49.732;20.078;2023-08-06T10:02:25;95042.14;;;22.19;82.35
24302;BME280;12421;49.732;20.078;2023-08-06T10:12:54;95044.20;;;22.01;82.46
24302;BME280;12421;49.732;20.078;2023-08-06T10:23:56;95045.94;;;21.59;81.35
24302;BME280;12421;49.732;20.078;2023-08-06T10:33:55;95054.22;;;21.06;82.38
24302;BME280;12421;49.732;20.078;2023-08-06T10:44:06;95036.73;;;21.03;81.87
24302;BME280;12421;49.732;20.078;2023-08-06T11:17:05;95037.84;;;20.12;81.76
24302;BME280;12421;49.732;20.078;2023-08-06T11:27:58;95040.13;;;20.42;79.72
24302;BME280;12421;49.732;20.078;2023-08-06T11:38:07;95050.77;;;20.45;78.67
24302;BME280;12421;49.732;20.078;2023-08-06T11:48:17;95064.25;;;20.52;79.95
24302;BME280;12421;49.732;20.078;2023-08-06T11:58:59;95087.98;;;20.23;77.82
24302;BME280;12421;49.732;20.078;2023-08-06T12:09:57;95111.33;;;19.22;77.24
24302;BME280;12421;49.732;20.078;2023-08-06T12:20:33;95122.14;;;18.79;77.77
24302;BME280;12421;49.732;20.078;2023-08-06T12:30:42;95144.95;;;18.68;78.30
24302;BME280;12421;49.732;20.078;2023-08-06T12:52:26;95182.92;;;18.11;79.68
24302;BME280;12421;49.732;20.078;2023-08-06T13:02:56;95203.94;;;18.23;80.09
24302;BME280;12421;49.732;20.078;2023-08-06T13:13:05;95200.91;;;17.97;80.06
24302;BME280;12421;49.732;20.078;2023-08-06T13:23:14;95224.73;;;17.70;80.18
24302;BME280;12421;49.732;20.078;2023-08-06T13:33:44;95241.21;;;17.49;80.21
24302;BME280;12421;49.732;20.078;2023-08-06T13:43:57;95241.45;;;17.48;80.63
24302;BME280;12421;49.732;20.078;2023-08-06T13:54:02;95247.71;;;17.53;81.23
24302;BME280;12421;49.732;20.078;2023-08-06T14:04:14;95272.50;;;17.54;80.58
24302;BME280;12421;49.732;20.078;2023-08-06T14:36:00;95302.64;;;18.05;82.43
24302;BME280;12421;49.732;20.078;2023-08-06T14:46:42;95300.86;;;18.55;81.37
24302;BME280;12421;49.732;20.078;2023-08-06T14:57:30;95322.39;;;18.68;79.31
24302;BME280;12421;49.732;20.078;2023-08-06T15:08:17;95340.50;;;18.61;78.68
24302;BME280;12421;49.732;20.078;2023-08-06T15:29:33;95376.77;;;18.18;80.70
24302;BME280;12421;49.732;20.078;2023-08-06T15:39:45;95392.05;;;18.21;80.92
24302;BME280;12421;49.732;20.078;2023-08-06T15:49:51;95407.45;;;18.05;80.95
24302;BME280;12421;49.732;20.078;2023-08-06T16:00:10;95431.98;;;17.96;80.60
24302;BME280;12421;49.732;20.078;2023-08-06T16:10:33;95447.26;;;17.88;80.41
24302;BME280;12421;49.732;20.078;2023-08-06T16:21:09;95450.97;;;17.79;80.86
24302;BME280;12421;49.732;20.078;2023-08-06T16:31:26;95460.56;;;17.80;80.95
24302;BME280;12421;49.732;20.078;2023-08-06T16:41:54;95469.58;;;17.66;80.91
24302;BME280;12421;49.732;20.078;2023-08-06T16:52:19;95484.88;;;17.42;81.67
24302;BME280;12421;49.732;20.078;2023-08-06T17:02:27;95482.75;;;17.13;82.05
24302;BME280;12421;49.732;20.078;2023-08-06T17:12:41;95478.66;;;17.13;83.32
24302;BME280;12421;49.732;20.078;2023-08-06T17:33:51;95512.70;;;17.02;82.81
24302;BME280;12421;49.732;20.078;2023-08-06T17:44:25;95519.89;;;17.06;83.38
24302;BME280;12421;49.732;20.078;2023-08-06T17:54:44;95528.83;;;16.75;82.99
24302;BME280;12421;49.732;20.078;2023-08-06T18:05:06;95532.98;;;16.67;83.99
24302;BME280;12421;49.732;20.078;2023-08-06T18:27:02;95520.45;;;16.60;84.03
24302;BME280;12421;49.732;20.078;2023-08-06T18:37:11;95529.98;;;16.51;83.98
24302;BME280;12421;49.732;20.078;2023-08-06T18:59:07;95557.99;;;16.47;84.60
24302;BME280;12421;49.732;20.078;2023-08-06T19:20:44;95586.54;;;16.14;84.61
24302;BME280;12421;49.732;20.078;2023-08-06T19:53:22;95583.84;;;15.39;84.09
24302;BME280;12421;49.732;20.078;2023-08-06T20:03:37;95599.14;;;15.44;85.08
24302;BME280;12421;49.732;20.078;2023-08-06T20:36:30;95573.01;;;15.40;86.23
24302;BME280;12421;49.732;20.078;2023-08-06T20:47:33;95556.14;;;15.44;86.30
24302;BME280;12421;49.732;20.078;2023-08-06T21:31:50;95543.85;;;15.01;86.10
24302;BME280;12421;49.732;20.078;2023-08-06T21:41:54;95553.37;;;14.98;87.03
24302;BME280;12421;49.732;20.078;2023-08-06T22:14:54;95582.02;;;15.18;87.49
24302;BME280;12421;49.732;20.078;2023-08-06T22:25:05;95586.20;;;15.26;86.82
24302;BME280;12421;49.732;20.078;2023-08-06T22:47:00;95607.10;;;15.22;85.95
24302;BME280;12421;49.732;20.078;2023-08-06T23:08:28;95641.41;;;15.19;87.02
24302;BME280;12421;49.732;20.078;2023-08-06T23:19:07;95634.76;;;15.21;87.32
24302;BME280;12421;49.732;20.078;2023-08-06T23:41:15;95621.54;;;15.24;87.39
